Binford, Mississippi
Current Conditions -  °F | °C
As of 8:35 AM on Thursday 29 Jan 2015 (Local Time) from KM40 Reporting Station
Scattered Clouds Scattered Clouds  
Wind Chill: 50°   Ceiling: Unl
Heat Index: 50°   Visibility: 8mi
Dew Point: 36°   Wind: 12mph
Humidity: 58%   Direction: 180°S
Pressure: 30.19"   Gusts: 18mph
Location:  33.8251°N, 88.6185°W
Report Text: KM40 291435Z AUTO 18010G16KT 8SM SCT100 10/02 A3019 RMK AO2
Loading
Personal Weather Stations






























Interactive Weather Map New forecast layout! Learn more

10-Day Weather Forecast

Advertisements
Track Severe Weather on mobile